Boone, Colorado
Current Conditions -  °F | °C
As of 1:53 PM on Thursday 18 Dec 2014 (Local Time) from KPUB Reporting Station
Clear Clear  
Wind Chill: 41°   Ceiling: Unl
Heat Index: 46°   Visibility: 10mi
Dew Point: 30°   Wind: 9mph
Humidity: 54%   Direction: 120°ESE
Pressure: 29.99"   Gusts: NA
Location:  38.25°N, 104.26°W
Report Text: KPUB 182053Z 12008KT 10SM CLR 08/M01 A2999 RMK AO2 SLP167 T00781011 56023
Loading
Personal Weather Stations






























Interactive Weather Map New forecast layout! Learn more

10-Day Weather Forecast

Advertisements
Track Severe Weather on mobile